Apache, Nevada
Current Conditions -  °F | °C
As of 7:56 PM on Wednesday 17 Dec 2014 (Local Time) from KWMC Reporting Station
Overcast Overcast  
Wind Chill: 30°   Ceiling: 11000
Heat Index: 30°   Visibility: 10mi
Dew Point: 28°   Wind: 3mph
Humidity: 92%   Direction: 70°ENE
Pressure: 30.01"   Gusts: NA
Location:  40.601°N, 117.984°W
Report Text: KWMC 180356Z AUTO 07003KT 10SM SCT055 OVC110 M01/M02 A3001 RMK AO2 SLP180 T10111022
Loading
Personal Weather Stations






























Interactive Weather Map New forecast layout! Learn more

10-Day Weather Forecast

Advertisements
Track Severe Weather on mobile